createdAt,value
2023-02-08T00:01:28.310Z,99344.66
2023-02-08T00:03:56.716Z,99352.56
2023-02-08T00:06:25.177Z,99348.25
2023-02-08T00:08:53.557Z,99355.13
2023-02-08T00:11:22.071Z,99356.66
2023-02-08T00:13:50.509Z,99364.56
2023-02-08T00:16:19.425Z,99364.56
2023-02-08T00:18:47.942Z,99358.69
2023-02-08T00:21:18.300Z,99367.13
2023-02-08T00:23:47.433Z,99378.34
2023-02-08T00:26:16.286Z,99380.38
2023-02-08T00:28:44.633Z,99384.72
2023-02-08T00:31:13.106Z,99381.38
2023-02-08T00:33:41.488Z,99389.28
2023-02-08T00:36:10.553Z,99382.66
2023-02-08T00:38:39.015Z,99390.78
2023-02-08T00:41:07.489Z,99400.25
2023-02-08T00:43:35.949Z,99406.34
2023-02-08T00:46:05.015Z,99405.34
2023-02-08T00:48:34.131Z,99401.75
2023-02-08T00:51:12.850Z,99403.00
2023-02-08T00:53:43.687Z,99409.88
2023-02-08T00:56:13.379Z,99409.59
2023-02-08T00:58:42.732Z,99411.34
2023-02-08T01:01:12.029Z,99415.16
2023-02-08T01:03:42.894Z,99414.13
2023-02-08T01:06:14.903Z,99415.16
2023-02-08T01:08:43.407Z,99425.38
2023-02-08T01:11:15.510Z,99442.44
2023-02-08T01:13:43.944Z,99438.59
2023-02-08T01:16:24.848Z,99442.41
2023-02-08T01:18:55.386Z,99446.22
2023-02-08T01:21:27.369Z,99446.47
2023-02-08T01:23:56.571Z,99449.00
2023-02-08T01:26:26.844Z,99445.16
2023-02-08T01:28:56.559Z,99454.09
2023-02-08T01:31:30.458Z,99443.38
2023-02-08T01:34:00.507Z,99451.78
2023-02-08T01:36:30.847Z,99454.03
2023-02-08T01:38:59.401Z,99446.06
2023-02-08T01:41:31.287Z,99451.41
2023-02-08T01:44:05.457Z,99445.97
2023-02-08T01:46:39.229Z,99454.34
2023-02-08T01:49:10.548Z,99450.97
2023-02-08T01:51:44.040Z,99459.38
2023-02-08T01:54:14.849Z,99457.53
2023-02-08T01:56:46.740Z,99459.56
2023-02-08T01:59:27.508Z,99468.69
2023-02-08T02:01:59.278Z,99464.84
2023-02-08T02:04:28.813Z,99463.28
2023-02-08T02:07:01.067Z,99467.09
2023-02-08T02:09:38.669Z,99469.63
2023-02-08T02:12:09.902Z,99469.34
2023-02-08T02:14:40.343Z,99464.69
2023-02-08T02:17:08.940Z,99476.44
2023-02-08T02:19:55.126Z,99483.06
2023-02-08T02:23:00.448Z,99478.44
2023-02-08T02:25:56.197Z,99473.25
2023-02-08T02:29:01.382Z,99483.72
2023-02-08T02:31:37.654Z,99475.97
2023-02-08T02:34:20.584Z,99480.50
2023-02-08T02:37:00.843Z,99479.94
2023-02-08T02:40:07.402Z,99479.38
2023-02-08T02:43:16.734Z,99477.72
2023-02-08T02:45:55.895Z,99471.16
2023-02-08T02:48:51.372Z,99467.25
2023-02-08T02:51:34.344Z,99459.94
2023-02-08T02:54:06.680Z,99460.34
2023-02-08T02:56:44.927Z,99458.47
2023-02-08T02:59:16.024Z,99453.72
2023-02-08T03:01:47.356Z,99449.75
2023-02-08T03:04:34.148Z,99447.09
2023-02-08T03:07:21.180Z,99441.81
2023-02-08T03:10:01.324Z,99443.47
2023-02-08T03:12:29.588Z,99443.63
2023-02-08T03:15:28.794Z,99431.19
2023-02-08T03:18:24.353Z,99430.03
2023-02-08T03:21:15.322Z,99421.72
2023-02-08T03:23:53.804Z,99420.84
2023-02-08T03:26:38.090Z,99414.56
2023-02-08T03:29:12.856Z,99411.63
2023-02-08T03:31:53.687Z,99399.69
2023-02-08T03:34:36.926Z,99403.19
2023-02-08T03:37:12.357Z,99393.31
2023-02-08T03:39:43.320Z,99394.19
2023-02-08T03:42:18.781Z,99396.34
2023-02-08T03:45:01.981Z,99397.03
2023-02-08T03:47:36.487Z,99395.81
2023-02-08T03:50:10.692Z,99385.16
2023-02-08T03:52:40.301Z,99379.38
2023-02-08T03:55:18.937Z,99387.22
2023-02-08T03:58:00.460Z,99375.25
2023-02-08T04:00:32.278Z,99376.66
2023-02-08T04:03:23.751Z,99363.16
2023-02-08T04:05:52.254Z,99370.97
2023-02-08T04:08:20.697Z,99361.06
2023-02-08T04:10:49.299Z,99366.78
2023-02-08T04:13:17.807Z,99359.16
2023-02-08T04:15:46.286Z,99350.53
2023-02-08T04:18:14.713Z,99345.50
2023-02-08T04:20:43.071Z,99342.31
2023-02-08T04:23:11.373Z,99334.47
2023-02-08T04:25:40.982Z,99332.28
2023-02-08T04:28:09.432Z,99330.06
2023-02-08T04:30:37.799Z,99328.59
2023-02-08T04:33:06.169Z,99327.91
2023-02-08T04:35:34.891Z,99324.59
2023-02-08T04:38:03.191Z,99314.63
2023-02-08T04:40:32.454Z,99315.22
2023-02-08T04:43:01.281Z,99306.81
2023-02-08T04:45:32.985Z,99297.63
2023-02-08T04:48:04.853Z,99293.88
2023-02-08T04:50:33.185Z,99286.72
2023-02-08T04:53:01.526Z,99285.03
2023-02-08T04:55:29.892Z,99282.97
2023-02-08T04:57:59.000Z,99282.84
2023-02-08T05:00:28.273Z,99272.09
2023-02-08T05:02:58.177Z,99268.31
2023-02-08T05:05:28.228Z,99259.47
2023-02-08T05:07:56.734Z,99261.94
2023-02-08T05:10:25.090Z,99249.72
2023-02-08T05:12:53.440Z,99241.03
2023-02-08T05:15:21.996Z,99239.13
2023-02-08T05:17:50.408Z,99224.59
2023-02-08T05:20:19.000Z,99219.69
2023-02-08T05:22:47.322Z,99221.97
2023-02-08T05:25:15.847Z,99211.00
2023-02-08T05:27:44.151Z,99214.97
2023-02-08T05:30:12.865Z,99203.47
2023-02-08T05:32:41.259Z,99206.50
2023-02-08T05:35:09.921Z,99200.44
2023-02-08T05:37:38.246Z,99196.28
2023-02-08T05:40:06.962Z,99193.06
2023-02-08T05:42:35.300Z,99189.84
2023-02-08T05:45:03.762Z,99186.06
2023-02-08T05:47:32.078Z,99179.66
2023-02-08T05:50:00.364Z,99182.09
2023-02-08T05:52:28.693Z,99176.44
2023-02-08T05:54:56.989Z,99178.31
2023-02-08T05:57:25.276Z,99163.59
2023-02-08T05:59:53.616Z,99160.19
2023-02-08T06:02:21.929Z,99152.06
2023-02-08T06:04:50.325Z,99147.69
2023-02-08T06:07:18.758Z,99142.59
2023-02-08T06:09:48.524Z,99125.03
2023-02-08T06:12:17.027Z,99126.50
2023-02-08T06:14:45.908Z,99122.31
2023-02-08T06:17:14.298Z,99116.06
2023-02-08T06:19:42.598Z,99107.00
2023-02-08T06:22:10.962Z,99103.75
2023-02-08T06:24:39.325Z,99101.28
2023-02-08T06:27:07.778Z,99094.09
2023-02-08T06:29:36.154Z,99087.84
2023-02-08T06:32:04.679Z,99085.75
2023-02-08T06:34:33.067Z,99082.56
2023-02-08T06:37:03.150Z,99080.66
2023-02-08T06:39:31.510Z,99073.66
2023-02-08T06:41:59.831Z,99065.47
2023-02-08T06:44:28.296Z,99065.69
2023-02-08T06:46:56.759Z,99060.94
2023-02-08T06:49:25.046Z,99051.28
2023-02-08T06:51:53.382Z,99055.78
2023-02-08T06:54:21.675Z,99046.72
2023-02-08T06:56:50.017Z,99037.78
2023-02-08T06:59:18.478Z,99036.44
2023-02-08T07:01:46.778Z,99021.34
2023-02-08T07:04:15.779Z,99018.16
2023-02-08T07:06:44.069Z,99019.13
2023-02-08T07:09:12.391Z,99008.19
2023-02-08T07:11:41.495Z,99000.22
2023-02-08T07:14:14.148Z,98995.88
2023-02-08T07:16:43.190Z,98995.88
2023-02-08T07:19:11.664Z,98997.19
2023-02-08T07:21:41.557Z,98987.19
2023-02-08T07:24:09.884Z,98991.34
2023-02-08T07:26:38.164Z,98990.59
2023-02-08T07:29:06.709Z,98987.00
2023-02-08T07:31:35.103Z,98986.25
2023-02-08T07:34:03.511Z,98986.06
2023-02-08T07:36:31.977Z,98975.47
2023-02-08T07:39:00.300Z,98976.81
2023-02-08T07:41:28.657Z,98981.91
2023-02-08T07:43:56.948Z,98970.94
2023-02-08T07:46:28.044Z,98967.16
2023-02-08T07:48:56.564Z,98961.50
2023-02-08T07:51:25.199Z,98960.00
2023-02-08T07:53:53.833Z,98960.75
2023-02-08T07:56:22.125Z,98956.97
2023-02-08T07:58:50.403Z,98956.81
2023-02-08T08:01:22.623Z,98955.28
2023-02-08T08:03:53.256Z,98953.22
2023-02-08T08:06:23.042Z,98945.28
2023-02-08T08:08:51.979Z,98947.38
2023-02-08T08:11:22.537Z,98954.38
2023-02-08T08:13:51.648Z,98943.78
2023-02-08T08:16:20.551Z,98943.78
2023-02-08T08:18:50.164Z,98947.19
2023-02-08T08:21:19.021Z,98941.72
2023-02-08T08:23:47.438Z,98937.94
2023-02-08T08:26:19.178Z,98936.28
2023-02-08T08:28:48.396Z,98933.25
2023-02-08T08:31:23.187Z,98940.25
2023-02-08T08:33:51.994Z,98945.19
2023-02-08T08:36:20.521Z,98938.75
2023-02-08T08:38:49.057Z,98933.47
2023-02-08T08:41:18.996Z,98923.47
2023-02-08T08:43:47.464Z,98936.91
2023-02-08T08:46:17.500Z,98937.28
2023-02-08T08:48:46.374Z,98932.94
2023-02-08T08:51:15.233Z,98931.28
2023-02-08T08:53:43.664Z,98933.94
2023-02-08T08:56:12.248Z,98922.97
2023-02-08T08:58:41.015Z,98933.38
2023-02-08T09:01:09.330Z,98930.34
2023-02-08T09:03:38.813Z,98921.66
2023-02-08T09:06:07.466Z,98920.88
2023-02-08T09:08:35.868Z,98917.88
2023-02-08T09:11:12.549Z,98919.03
2023-02-08T09:13:41.536Z,98920.94
2023-02-08T09:16:13.619Z,98917.91
2023-02-08T09:18:42.504Z,98922.66
2023-02-08T09:21:16.933Z,98911.72
2023-02-08T09:23:45.290Z,98920.03
2023-02-08T09:26:15.577Z,98918.31
2023-02-08T09:28:44.384Z,98918.72
2023-02-08T09:31:19.574Z,98919.88
2023-02-08T09:33:51.773Z,98920.25
2023-02-08T09:36:22.311Z,98919.31
2023-02-08T09:38:52.609Z,98920.47
2023-02-08T09:41:39.199Z,98918.03
2023-02-08T09:44:16.893Z,98918.25
2023-02-08T09:47:13.594Z,98920.69
2023-02-08T09:50:00.185Z,98924.44
2023-02-08T09:52:59.359Z,98926.91
2023-02-08T09:55:39.602Z,98922.97
2023-02-08T09:58:37.766Z,98928.84
2023-02-08T10:01:13.394Z,98927.72
2023-02-08T10:03:46.185Z,98935.81
2023-02-08T10:06:20.028Z,98930.34
2023-02-08T10:08:53.214Z,98935.63
2023-02-08T10:12:05.400Z,98940.75
2023-02-08T10:15:01.556Z,98936.59
2023-02-08T10:17:37.902Z,98938.09
2023-02-08T10:20:18.282Z,98938.63
2023-02-08T10:23:23.495Z,98937.88
2023-02-08T10:26:02.043Z,98941.25
2023-02-08T10:28:57.157Z,98947.66
2023-02-08T10:32:09.303Z,98945.19
2023-02-08T10:34:58.664Z,98952.31
2023-02-08T10:37:33.524Z,98953.78
2023-02-08T10:40:24.679Z,98950.38
2023-02-08T10:43:12.785Z,98955.47
2023-02-08T10:46:11.524Z,98957.16
2023-02-08T10:48:49.047Z,98962.19
2023-02-08T10:51:22.515Z,98955.41
2023-02-08T10:53:51.087Z,98959.16
2023-02-08T10:56:31.611Z,98962.91
2023-02-08T10:59:00.969Z,98963.06
2023-02-08T11:01:29.814Z,98963.78
2023-02-08T11:04:13.360Z,98956.97
2023-02-08T11:06:43.528Z,98969.91
2023-02-08T11:09:32.364Z,98966.50
2023-02-08T11:12:03.548Z,98971.56
2023-02-08T11:14:46.752Z,98969.63
2023-02-08T11:17:32.565Z,98970.34
2023-02-08T11:20:02.028Z,98968.22
2023-02-08T11:22:32.534Z,98974.22
2023-02-08T11:25:06.864Z,98981.53
2023-02-08T11:27:45.842Z,98983.94
2023-02-08T11:30:18.484Z,98981.47
2023-02-08T11:32:48.932Z,98981.81
2023-02-08T11:35:23.200Z,98986.50
2023-02-08T11:37:58.160Z,98984.00
2023-02-08T11:40:38.449Z,98983.06
2023-02-08T11:43:07.052Z,98983.59
2023-02-08T11:45:38.223Z,98992.63
2023-02-08T11:48:20.068Z,99000.88
2023-02-08T11:50:57.286Z,99000.69
2023-02-08T11:53:34.565Z,99004.59
2023-02-08T11:56:07.084Z,99008.72
2023-02-08T11:58:35.885Z,99008.50
2023-02-08T12:01:08.023Z,99011.13
2023-02-08T12:03:41.825Z,99012.78
2023-02-08T12:06:28.337Z,99012.56
2023-02-08T12:09:22.310Z,99019.88
2023-02-08T12:12:05.014Z,99018.16
2023-02-08T12:14:35.954Z,99024.13
2023-02-08T12:17:45.703Z,99024.47
2023-02-08T12:20:33.973Z,99028.16
2023-02-08T12:23:18.332Z,99041.09
2023-02-08T12:26:10.982Z,99048.38
2023-02-08T12:29:09.719Z,99046.44
2023-02-08T12:31:40.784Z,99046.56
2023-02-08T12:34:20.756Z,99044.03
2023-02-08T12:37:31.820Z,99045.69
2023-02-08T12:40:45.534Z,99058.41
2023-02-08T12:43:37.812Z,99062.09
2023-02-08T12:46:24.022Z,99069.38
2023-02-08T12:48:55.149Z,99069.47
2023-02-08T12:52:05.847Z,99071.09
2023-02-08T12:54:59.150Z,99083.78
2023-02-08T12:57:31.748Z,99081.31
2023-02-08T13:00:09.352Z,99089.88
2023-02-08T13:03:04.135Z,99080.75
2023-02-08T13:05:39.203Z,99082.88
2023-02-08T13:08:32.374Z,99099.34
2023-02-08T13:11:30.423Z,99092.53
2023-02-08T13:14:08.162Z,99101.09
2023-02-08T13:16:51.585Z,99107.81
2023-02-08T13:20:00.490Z,99104.31
2023-02-08T13:22:35.677Z,99116.44
2023-02-08T13:25:07.884Z,99110.59
2023-02-08T13:27:37.113Z,99116.53
2023-02-08T13:30:07.829Z,99119.88
2023-02-08T13:32:46.625Z,99119.44
2023-02-08T13:35:18.075Z,99127.66
2023-02-08T13:37:54.527Z,99136.66
2023-02-08T13:40:29.423Z,99132.09
2023-02-08T13:43:36.007Z,99140.31
2023-02-08T13:46:06.331Z,99137.81
2023-02-08T13:49:00.896Z,99143.97
2023-02-08T13:51:35.374Z,99152.16
2023-02-08T13:54:03.695Z,99147.59
2023-02-08T13:56:53.953Z,99152.78
2023-02-08T13:59:29.989Z,99156.69
2023-02-08T14:02:13.864Z,99161.84
2023-02-08T14:04:44.910Z,99167.25
2023-02-08T14:07:13.175Z,99167.56
2023-02-08T14:10:04.650Z,99168.63
2023-02-08T14:12:54.407Z,99177.38
2023-02-08T14:15:25.739Z,99179.19
2023-02-08T14:17:58.449Z,99182.53
2023-02-08T14:20:42.432Z,99172.34
2023-02-08T14:23:27.225Z,99178.81
2023-02-08T14:25:57.932Z,99186.81
2023-02-08T14:28:35.279Z,99187.13
2023-02-08T14:31:11.419Z,99187.41
2023-02-08T14:33:59.884Z,99188.22
2023-02-08T14:36:32.899Z,99188.00
2023-02-08T14:39:25.327Z,99184.19
2023-02-08T14:41:58.218Z,99188.06
2023-02-08T14:44:42.897Z,99191.38
2023-02-08T14:47:26.227Z,99193.22
2023-02-08T14:50:06.881Z,99185.31
2023-02-08T14:52:35.834Z,99186.91
2023-02-08T14:55:08.705Z,99193.06
2023-02-08T14:57:38.889Z,99190.50
2023-02-08T15:00:18.038Z,99186.19
2023-02-08T15:02:47.802Z,99190.81
2023-02-08T15:05:32.460Z,99189.31
2023-02-08T15:08:03.021Z,99187.78
2023-02-08T15:10:33.386Z,99190.13
2023-02-08T15:13:07.426Z,99199.63
2023-02-08T15:15:41.405Z,99198.63
2023-02-08T15:18:20.752Z,99201.75
2023-02-08T15:21:02.954Z,99202.78
2023-02-08T15:23:31.896Z,99201.03
2023-02-08T15:26:01.785Z,99202.81
2023-02-08T15:28:32.481Z,99205.94
2023-02-08T15:31:07.127Z,99204.19
2023-02-08T15:33:39.174Z,99196.81
2023-02-08T15:36:19.909Z,99200.91
2023-02-08T15:38:49.354Z,99201.44
2023-02-08T15:41:33.217Z,99201.19
2023-02-08T15:44:24.643Z,99192.53
2023-02-08T15:49:42.651Z,99193.59
2023-02-08T15:52:18.620Z,99195.41
2023-02-08T15:54:47.572Z,99198.72
2023-02-08T15:57:49.561Z,99193.63
2023-02-08T16:00:33.726Z,99194.66
2023-02-08T16:03:10.380Z,99196.47
2023-02-08T16:05:39.732Z,99195.47
2023-02-08T16:08:08.762Z,99201.63
2023-02-08T16:10:44.386Z,99196.53
2023-02-08T16:13:33.009Z,99196.28
2023-02-08T16:16:22.104Z,99201.13
2023-02-08T16:19:18.986Z,99201.44
2023-02-08T16:21:47.944Z,99189.97
2023-02-08T16:24:16.204Z,99196.09
2023-02-08T16:27:04.938Z,99197.38
2023-02-08T16:29:41.118Z,99200.72
2023-02-08T16:32:27.987Z,99196.91
2023-02-08T16:34:57.226Z,99201.53
2023-02-08T16:37:25.585Z,99194.13
2023-02-08T16:39:59.637Z,99192.13
2023-02-08T16:42:46.748Z,99196.47
2023-02-08T16:45:21.656Z,99196.22
2023-02-08T16:47:56.781Z,99196.75
2023-02-08T16:50:27.954Z,99196.50
2023-02-08T16:53:06.196Z,99193.47
2023-02-08T16:55:38.015Z,99193.22
2023-02-08T16:58:06.314Z,99198.63
2023-02-08T17:00:36.565Z,99196.31
2023-02-08T17:03:05.134Z,99197.63
2023-02-08T17:05:38.536Z,99196.84
2023-02-08T17:08:10.842Z,99194.03
2023-02-08T17:10:39.878Z,99197.38
2023-02-08T17:13:19.844Z,99193.28
2023-02-08T17:15:51.438Z,99200.19
2023-02-08T17:18:20.694Z,99197.38
2023-02-08T17:20:49.451Z,99190.00
2023-02-08T17:23:17.847Z,99192.03
2023-02-08T17:25:46.580Z,99192.53
2023-02-08T17:28:22.797Z,99187.69
2023-02-08T17:30:51.695Z,99186.16
2023-02-08T17:33:20.426Z,99186.16
2023-02-08T17:35:51.457Z,99194.06
2023-02-08T17:38:21.392Z,99184.66
2023-02-08T17:40:49.915Z,99183.88
2023-02-08T17:43:18.346Z,99178.78
2023-02-08T17:45:47.081Z,99180.06
2023-02-08T17:48:16.158Z,99170.91
2023-02-08T17:50:48.786Z,99177.53
2023-02-08T17:53:17.430Z,99171.91
2023-02-08T17:55:47.465Z,99166.31
2023-02-08T17:58:15.939Z,99162.72
2023-02-08T18:00:44.291Z,99167.84
2023-02-08T18:03:13.147Z,99171.91
2023-02-08T18:05:41.487Z,99165.03
2023-02-08T18:08:09.843Z,99161.72
2023-02-08T18:10:38.245Z,99168.09
2023-02-08T18:13:06.521Z,99161.19
2023-02-08T18:15:35.603Z,99153.78
2023-02-08T18:18:04.179Z,99157.34
2023-02-08T18:20:32.560Z,99148.41
2023-02-08T18:23:00.885Z,99147.91
2023-02-08T18:25:29.308Z,99149.41
2023-02-08T18:27:57.817Z,99155.28
2023-02-08T18:30:27.265Z,99145.56
2023-02-08T18:32:55.840Z,99150.66
2023-02-08T18:35:24.793Z,99140.19
2023-02-08T18:37:54.518Z,99143.75
2023-02-08T18:40:22.955Z,99140.94
2023-02-08T18:42:51.520Z,99143.22
2023-02-08T18:45:20.130Z,99146.03
2023-02-08T18:47:48.512Z,99144.00
2023-02-08T18:50:16.931Z,99150.13
2023-02-08T18:52:45.286Z,99141.78
2023-02-08T18:55:13.671Z,99159.63
2023-02-08T18:57:42.041Z,99162.47
2023-02-08T19:00:11.080Z,99158.41
2023-02-08T19:02:39.720Z,99167.09
2023-02-08T19:05:11.007Z,99171.72
2023-02-08T19:07:41.036Z,99159.22
2023-02-08T19:10:09.630Z,99165.06
2023-02-08T19:12:38.359Z,99165.81
2023-02-08T19:15:07.100Z,99159.16
2023-02-08T19:17:35.462Z,99156.88
2023-02-08T19:20:04.032Z,99145.13
2023-02-08T19:22:32.408Z,99144.59
2023-02-08T19:25:00.818Z,99144.06
2023-02-08T19:27:30.429Z,99142.28
2023-02-08T19:29:58.791Z,99144.56
2023-02-08T19:32:27.163Z,99151.72
2023-02-08T19:34:55.520Z,99140.25
2023-02-08T19:37:23.860Z,99145.09
2023-02-08T19:39:52.205Z,99137.69
2023-02-08T19:42:20.541Z,99139.75
2023-02-08T19:44:48.913Z,99137.47
2023-02-08T19:47:17.356Z,99135.41
2023-02-08T19:49:45.702Z,99129.81
2023-02-08T19:52:14.206Z,99132.59
2023-02-08T19:54:42.544Z,99135.41
2023-02-08T19:57:12.778Z,99132.59
2023-02-08T19:59:41.094Z,99124.94
2023-02-08T20:02:12.595Z,99122.13
2023-02-08T20:04:41.671Z,99119.34
2023-02-08T20:07:10.286Z,99114.47
2023-02-08T20:09:38.773Z,99115.00
2023-02-08T20:12:07.433Z,99115.00
2023-02-08T20:14:36.096Z,99101.50
2023-02-08T20:17:04.860Z,99102.78
2023-02-08T20:19:33.192Z,99097.69
2023-02-08T20:22:01.540Z,99099.22
2023-02-08T20:24:29.879Z,99097.19
2023-02-08T20:26:58.323Z,99092.84
2023-02-08T20:29:28.770Z,99092.59
2023-02-08T20:31:58.364Z,99098.72
2023-02-08T20:34:27.110Z,99094.91
2023-02-08T20:37:06.810Z,99095.97
2023-02-08T20:39:37.290Z,99092.94
2023-02-08T20:42:06.722Z,99091.94
2023-02-08T20:44:35.135Z,99088.88
2023-02-08T20:47:03.501Z,99095.00
2023-02-08T20:49:33.097Z,99100.38
2023-02-08T20:52:01.542Z,99098.09
2023-02-08T20:54:30.015Z,99100.66
2023-02-08T20:56:58.811Z,99095.56
2023-02-08T20:59:27.254Z,99098.88
2023-02-08T21:01:55.996Z,99096.38
2023-02-08T21:04:24.448Z,99103.25
2023-02-08T21:06:54.683Z,99100.97
2023-02-08T21:09:26.187Z,99098.69
2023-02-08T21:11:54.932Z,99108.41
2023-02-08T21:14:24.326Z,99106.88
2023-02-08T21:16:57.097Z,99110.19
2023-02-08T21:19:27.581Z,99102.31
2023-02-08T21:21:58.897Z,99114.03
2023-02-08T21:24:28.284Z,99107.44
2023-02-08T21:26:58.109Z,99106.44
2023-02-08T21:29:27.014Z,99109.50
2023-02-08T21:31:57.226Z,99119.19
2023-02-08T21:34:25.642Z,99126.59
2023-02-08T21:36:54.026Z,99122.25
2023-02-08T21:39:24.135Z,99124.06
2023-02-08T21:41:54.140Z,99116.94
2023-02-08T21:44:22.840Z,99125.34
2023-02-08T21:46:51.186Z,99133.53
2023-02-08T21:49:37.610Z,99131.25
2023-02-08T21:52:24.388Z,99145.00
2023-02-08T21:54:54.451Z,99146.06
2023-02-08T21:57:26.711Z,99157.50
2023-02-08T21:59:59.964Z,99154.47
2023-02-08T22:02:32.114Z,99160.59
2023-02-08T22:05:02.313Z,99156.00
2023-02-08T22:07:40.735Z,99157.25
2023-02-08T22:10:11.069Z,99161.34
2023-02-08T22:12:42.066Z,99162.38
2023-02-08T22:15:13.166Z,99159.34
2023-02-08T22:17:41.598Z,99167.75
2023-02-08T22:20:10.881Z,99167.50
2023-02-08T22:22:39.341Z,99165.97
2023-02-08T22:25:08.379Z,99170.06
2023-02-08T22:27:36.833Z,99168.78
2023-02-08T22:30:05.485Z,99171.34
2023-02-08T22:32:34.165Z,99182.28
2023-02-08T22:35:02.454Z,99182.81
2023-02-08T22:37:30.789Z,99187.66
2023-02-08T22:39:59.150Z,99185.38
2023-02-08T22:42:28.771Z,99191.72
2023-02-08T22:44:57.285Z,99195.56
2023-02-08T22:47:25.755Z,99199.66
2023-02-08T22:49:57.116Z,99201.69
2023-02-08T22:52:26.757Z,99193.81
2023-02-08T22:54:56.962Z,99190.22
2023-02-08T22:57:25.345Z,99198.13
2023-02-08T22:59:53.712Z,99206.78
2023-02-08T23:02:22.053Z,99205.25
2023-02-08T23:04:50.379Z,99205.75
2023-02-08T23:07:19.299Z,99211.88
2023-02-08T23:09:48.143Z,99215.94
2023-02-08T23:12:16.685Z,99214.44
2023-02-08T23:14:45.388Z,99216.22
2023-02-08T23:17:13.684Z,99227.94
2023-02-08T23:19:42.732Z,99225.66
2023-02-08T23:22:11.071Z,99224.88
2023-02-08T23:24:39.464Z,99226.16
2023-02-08T23:27:07.756Z,99226.16
2023-02-08T23:29:36.029Z,99228.97
2023-02-08T23:32:04.429Z,99229.47
2023-02-08T23:34:32.728Z,99229.47
2023-02-08T23:37:01.097Z,99233.56
2023-02-08T23:39:29.386Z,99234.31
2023-02-08T23:41:57.792Z,99237.13
2023-02-08T23:44:27.468Z,99234.06
2023-02-08T23:46:55.867Z,99235.59
2023-02-08T23:49:24.441Z,99237.38
2023-02-08T23:51:54.618Z,99248.06
2023-02-08T23:54:22.919Z,99249.34
2023-02-08T23:56:52.890Z,99253.69
2023-02-08T23:59:21.191Z,99251.63
